Avery, Idaho
Current Conditions -  °F | °C
As of 12:53 AM on Sunday 23 Nov 2014 (Local Time) from KMLP Reporting Station
Moderate Fog Moderate Fog  
Wind Chill: 17°   Ceiling: 100
Heat Index: 25°   Visibility: 0.5mi
Dew Point: 23°   Wind: 7mph
Humidity: 92%   Direction: 310°NW
Pressure: 29.88"   Gusts: NA
Location:  47.25°N, 115.81°W
Report Text: KMLP 230853Z AUTO 31006KT 1/2SM FZFG VV001 M04/M05 A2988 RMK AO2 SLP158 60000 T10391050 51026
Loading
Personal Weather Stations






























Interactive Weather Map New forecast layout! Learn more

10-Day Weather Forecast

Advertisements
Track Severe Weather on mobile